Time;durP1;ratioP1;P1;durP2;ratioP2;P2;SDS_P1;SDS_P2;PMS_P1;PMS_P2;Temp;Humidity;BMP_temperature;BMP_pressure;BME280_temperature;BME280_humidity;BME280_pressure;Samples;Min_cycle;Max_cycle;Signal;HPM_P1;HPM_P2
2022/06/11 00:01:10;;;;;;;15.57;13.00;;;;;;;17.66;100.00;94123.03;5018519;28;20206;-84
2022/06/11 00:03:46;;;;;;;19.43;13.47;;;;;;;17.72;100.00;94127.16;4995345;28;20238;-83
2022/06/11 00:06:23;;;;;;;19.30;13.02;;;;;;;17.74;100.00;94130.34;5001833;28;20216;-83
2022/06/11 00:09:02;;;;;;;17.43;13.43;;;;;;;17.76;100.00;94127.41;4994607;28;20196;-81
2022/06/11 00:11:43;;;;;;;16.73;13.43;;;;;;;17.75;100.00;94117.97;4999803;28;20254;-82
2022/06/11 00:14:15;;;;;;;17.90;13.87;;;;;;;17.79;100.00;94132.91;4997029;28;20690;-84
2022/06/11 00:20:29;;;;;;;17.17;13.63;;;;;;;17.95;100.00;94125.69;4992665;28;20203;-84
2022/06/11 00:23:05;;;;;;;17.17;13.30;;;;;;;17.94;100.00;94121.50;5000277;28;20219;-84
2022/06/11 00:25:37;;;;;;;16.77;13.40;;;;;;;17.96;100.00;94128.03;5006420;28;20273;-80
2022/06/11 00:28:12;;;;;;;19.47;13.43;;;;;;;17.97;100.00;94132.25;5000350;28;20944;-80
2022/06/11 00:30:47;;;;;;;20.07;13.77;;;;;;;17.91;100.00;94125.47;5002549;28;20258;-79
2022/06/11 00:33:25;;;;;;;20.23;12.90;;;;;;;17.97;100.00;94124.34;4989912;28;20211;-80
2022/06/11 00:36:03;;;;;;;17.23;13.30;;;;;;;17.98;100.00;94128.53;4998889;28;20331;-80
2022/06/11 00:38:42;;;;;;;20.93;13.37;;;;;;;17.98;100.00;94133.00;4994481;28;20313;-80
2022/06/11 00:41:15;;;;;;;17.30;12.87;;;;;;;18.00;100.00;94130.91;4980485;28;20218;-79
2022/06/11 00:43:48;;;;;;;18.80;13.27;;;;;;;18.01;100.00;94128.00;5000802;28;20207;-81
2022/06/11 00:47:04;;;;;;;17.73;12.73;;;;;;;17.93;100.00;94133.84;4995439;28;20200;-80
2022/06/11 00:49:43;;;;;;;15.33;12.03;;;;;;;17.99;100.00;94124.84;4933958;29;20625;-80
2022/06/11 00:52:26;;;;;;;17.27;12.60;;;;;;;18.01;100.00;94128.00;4929519;29;20198;-83
2022/06/11 00:55:05;;;;;;;16.60;12.65;;;;;;;18.03;100.00;94131.16;4973881;28;20212;-82
2022/06/11 00:57:45;;;;;;;15.17;12.83;;;;;;;18.07;100.00;94129.50;4991007;28;20219;-82
2022/06/11 01:00:24;;;;;;;16.15;12.75;;;;;;;18.06;100.00;94127.97;4997997;28;20640;-82
2022/06/11 01:02:58;;;;;;;16.67;12.93;;;;;;;18.05;100.00;94133.50;5009538;28;20238;-79
2022/06/11 01:05:35;;;;;;;19.52;13.35;;;;;;;17.99;100.00;94127.50;5011457;28;20198;-78
2022/06/11 01:08:28;;;;;;;17.13;13.43;;;;;;;17.97;100.00;94134.88;5007624;28;20716;-79
2022/06/11 01:11:14;;;;;;;15.87;12.83;;;;;;;17.85;100.00;94131.81;5004773;28;20207;-78
2022/06/11 01:13:55;;;;;;;19.23;13.77;;;;;;;17.85;100.00;94125.78;5006463;28;20772;-79
2022/06/11 01:16:43;;;;;;;18.97;13.80;;;;;;;17.82;100.00;94123.69;4991911;28;20249;-78
2022/06/11 01:19:47;;;;;;;18.77;13.90;;;;;;;17.72;100.00;94126.41;5012693;28;20230;-78
2022/06/11 01:22:37;;;;;;;20.90;13.47;;;;;;;17.76;100.00;94114.28;5010777;28;20257;-79
2022/06/11 01:25:35;;;;;;;16.47;12.77;;;;;;;17.86;100.00;94122.09;5015763;28;20260;-78
2022/06/11 01:28:34;;;;;;;17.90;13.90;;;;;;;17.83;100.00;94127.91;4988378;28;20678;-79
2022/06/11 01:31:10;;;;;;;18.23;13.97;;;;;;;17.87;100.00;94131.53;4992634;28;20207;-79
2022/06/11 01:33:53;;;;;;;21.70;13.57;;;;;;;17.87;100.00;94132.31;5007280;28;20598;-79
2022/06/11 01:36:26;;;;;;;16.10;12.97;;;;;;;17.85;100.00;94128.41;5005238;28;20206;-80
2022/06/11 01:39:05;;;;;;;17.83;13.63;;;;;;;17.89;100.00;94127.56;5015093;28;20298;-81
2022/06/11 01:41:49;;;;;;;15.87;13.33;;;;;;;17.86;100.00;94137.88;5021084;28;20195;-81
2022/06/11 01:44:27;;;;;;;17.53;14.00;;;;;;;17.86;100.00;94135.25;5017397;28;20213;-81
2022/06/11 01:47:05;;;;;;;17.17;13.47;;;;;;;17.80;100.00;94112.69;5009008;28;20203;-82
2022/06/11 01:49:49;;;;;;;18.40;14.87;;;;;;;17.83;100.00;94136.56;5014722;28;20205;-83
2022/06/11 01:52:38;;;;;;;16.83;13.97;;;;;;;17.77;100.00;94132.41;5011450;28;20211;-81
2022/06/11 01:55:35;;;;;;;20.17;13.97;;;;;;;17.69;100.00;94126.97;5010791;28;20713;-80
2022/06/11 01:58:29;;;;;;;17.83;14.07;;;;;;;17.76;100.00;94128.22;5006563;28;20196;-81
2022/06/11 02:01:18;;;;;;;19.50;14.03;;;;;;;17.82;100.00;94139.47;5014282;28;20203;-81
2022/06/11 02:04:05;;;;;;;18.17;14.10;;;;;;;17.79;100.00;94134.75;4994043;28;20200;-82
2022/06/11 02:06:56;;;;;;;18.83;14.53;;;;;;;17.78;100.00;94125.28;4998829;28;20203;-83
2022/06/11 02:09:35;;;;;;;21.23;15.50;;;;;;;17.81;100.00;94130.00;4994351;28;20299;-82
2022/06/11 02:12:18;;;;;;;19.60;15.57;;;;;;;17.82;100.00;94135.00;4997081;28;20198;-80
2022/06/11 02:15:03;;;;;;;19.73;15.53;;;;;;;17.82;100.00;94131.56;4991429;28;20208;-79
2022/06/11 02:17:43;;;;;;;19.63;15.77;;;;;;;17.77;100.00;94132.41;4992828;28;20697;-79
2022/06/11 02:20:26;;;;;;;24.57;16.47;;;;;;;17.76;100.00;94130.03;4994863;28;20235;-79
2022/06/11 02:23:07;;;;;;;23.37;16.90;;;;;;;17.81;100.00;94132.63;4997356;28;20211;-80
2022/06/11 02:25:47;;;;;;;22.60;16.90;;;;;;;17.82;100.00;94135.00;4999390;28;20207;-80
2022/06/11 02:28:28;;;;;;;25.07;16.50;;;;;;;17.83;100.00;94133.16;4993706;28;20203;-81
2022/06/11 02:31:09;;;;;;;22.70;16.80;;;;;;;17.79;100.00;94132.91;4992620;28;20204;-81
2022/06/11 02:33:48;;;;;;;24.37;17.50;;;;;;;17.77;100.00;94134.25;4991620;28;20254;-81
2022/06/11 02:36:27;;;;;;;26.33;16.95;;;;;;;17.78;100.00;94141.84;4997302;28;20199;-81
2022/06/11 02:39:01;;;;;;;19.00;14.77;;;;;;;17.69;100.00;94143.50;4988210;28;20235;-82
2022/06/11 02:41:36;;;;;;;19.58;14.98;;;;;;;17.71;100.00;94146.66;4996764;28;20254;-82
2022/06/11 02:44:06;;;;;;;23.70;14.57;;;;;;;17.72;100.00;94137.69;4996714;28;20206;-80
2022/06/11 02:46:47;;;;;;;17.47;13.37;;;;;;;17.72;100.00;94135.06;4998107;28;20298;-82
2022/06/11 02:49:25;;;;;;;19.00;12.97;;;;;;;17.68;100.00;94130.63;4991853;28;20624;-79
2022/06/11 02:52:06;;;;;;;16.57;12.27;;;;;;;17.73;100.00;94131.38;4995533;28;20239;-79
2022/06/11 02:54:42;;;;;;;16.27;12.43;;;;;;;17.69;100.00;94140.88;4997484;28;20237;-80
2022/06/11 02:57:20;;;;;;;14.63;12.07;;;;;;;17.71;100.00;94144.03;4999008;28;20203;-80
2022/06/11 02:59:58;;;;;;;15.07;11.07;;;;;;;17.69;100.00;94142.72;4995273;28;20315;-79
2022/06/11 03:02:34;;;;;;;19.30;12.40;;;;;;;17.64;100.00;94134.88;4990342;28;20231;-80
2022/06/11 03:05:10;;;;;;;14.10;11.63;;;;;;;17.71;100.00;94151.13;4995527;28;20223;-80
2022/06/11 03:07:47;;;;;;;14.33;11.07;;;;;;;17.67;100.00;94142.19;4993200;28;20221;-80
2022/06/11 03:10:21;;;;;;;14.40;11.13;;;;;;;17.74;100.00;94155.84;4996425;28;20196;-80
2022/06/11 03:12:58;;;;;;;15.47;11.30;;;;;;;17.64;100.00;94140.13;4997472;28;20229;-82
2022/06/11 03:15:34;;;;;;;16.07;11.57;;;;;;;17.65;100.00;94152.22;4991409;28;20207;-79
2022/06/11 03:18:09;;;;;;;14.83;10.87;;;;;;;17.71;100.00;94151.91;4990532;28;20666;-80
2022/06/11 03:20:41;;;;;;;13.37;10.67;;;;;;;17.71;100.00;94159.78;4992854;28;21101;-81
2022/06/11 03:23:17;;;;;;;14.37;11.50;;;;;;;17.72;100.00;94163.97;4999782;28;20210;-81
2022/06/11 03:25:51;;;;;;;17.00;11.97;;;;;;;17.71;100.00;94172.94;4996939;28;20199;-81
2022/06/11 03:28:28;;;;;;;14.17;11.30;;;;;;;17.66;100.00;94159.84;4988677;28;20310;-81
2022/06/11 03:31:00;;;;;;;15.93;11.17;;;;;;;17.58;100.00;94158.56;4994395;28;20293;-80
2022/06/11 03:33:35;;;;;;;16.93;12.20;;;;;;;17.58;100.00;94158.56;4995389;28;20258;-80
2022/06/11 03:36:10;;;;;;;17.97;13.00;;;;;;;17.59;100.00;94156.72;4997431;28;20858;-80
2022/06/11 03:38:48;;;;;;;17.67;13.43;;;;;;;17.66;100.00;94165.09;5001830;28;20211;-80
2022/06/11 03:41:24;;;;;;;18.93;13.13;;;;;;;17.70;100.00;94154.78;4994828;28;20592;-81
2022/06/11 03:43:59;;;;;;;15.23;12.03;;;;;;;17.75;100.00;94157.41;4983867;28;20666;-80
2022/06/11 03:46:30;;;;;;;17.53;12.47;;;;;;;17.76;100.00;94161.59;4988674;28;20210;-79
2022/06/11 03:49:04;;;;;;;17.47;12.37;;;;;;;17.79;100.00;94168.94;4994196;28;20259;-81
2022/06/11 03:51:39;;;;;;;16.40;11.97;;;;;;;17.81;100.00;94164.97;4994181;28;20262;-81
2022/06/11 03:54:16;;;;;;;14.97;12.37;;;;;;;17.81;100.00;94167.59;4997772;28;20227;-81
2022/06/11 03:56:55;;;;;;;17.13;12.83;;;;;;;17.81;100.00;94172.84;4988264;28;20930;-81
2022/06/11 03:59:37;;;;;;;18.00;13.70;;;;;;;17.80;100.00;94166.03;4994162;28;20212;-81
2022/06/11 04:02:10;;;;;;;17.20;12.77;;;;;;;17.88;100.00;94177.81;4997943;28;20242;-81
2022/06/11 04:04:42;;;;;;;20.90;14.57;;;;;;;17.90;100.00;94179.09;5012098;28;20216;-81
2022/06/11 04:07:16;;;;;;;21.10;15.10;;;;;;;17.90;100.00;94173.84;5009149;28;20199;-81
2022/06/11 04:10:00;;;;;;;19.97;15.70;;;;;;;18.01;100.00;94174.53;5006719;28;20215;-80
2022/06/11 04:12:36;;;;;;;20.33;14.93;;;;;;;18.01;100.00;94170.06;5007882;28;20211;-80
2022/06/11 04:15:10;;;;;;;23.80;15.50;;;;;;;18.01;100.00;94175.31;5005767;28;20268;-80
2022/06/11 04:17:47;;;;;;;19.53;14.83;;;;;;;18.03;100.00;94182.97;5010059;28;20204;-80
2022/06/11 04:20:21;;;;;;;19.50;14.03;;;;;;;18.08;100.00;94170.53;5008747;28;20271;-79
2022/06/11 04:23:02;;;;;;;19.70;13.50;;;;;;;18.04;100.00;94169.50;5005608;28;20650;-79
2022/06/11 04:25:39;;;;;;;16.02;11.68;;;;;;;18.09;100.00;94182.63;5009057;28;20242;-81
2022/06/11 04:28:13;;;;;;;13.27;10.85;;;;;;;18.05;100.00;94184.25;5009583;28;20215;-84
2022/06/11 04:30:45;;;;;;;15.20;10.82;;;;;;;18.04;100.00;94173.97;5017260;28;20662;-82
2022/06/11 04:33:20;;;;;;;13.45;11.02;;;;;;;18.00;100.00;94172.97;5012242;28;20200;-82
2022/06/11 04:35:53;;;;;;;17.00;11.70;;;;;;;17.89;100.00;94161.75;5009267;28;20280;-83
2022/06/11 04:38:30;;;;;;;17.05;12.23;;;;;;;17.93;100.00;94173.28;5012993;28;20643;-81
2022/06/11 04:41:04;;;;;;;14.57;11.70;;;;;;;17.97;100.00;94182.22;5013293;28;20219;-81
2022/06/11 04:43:41;;;;;;;14.53;12.03;;;;;;;17.96;100.00;94183.25;5016358;28;20207;-80
2022/06/11 04:46:15;;;;;;;17.47;11.73;;;;;;;18.00;100.00;94189.56;5009316;28;20256;-80
2022/06/11 05:13:44;;;;;;;15.43;11.30;;;;;;;17.90;100.00;94220.38;4999448;28;20241;-80
2022/06/11 05:16:20;;;;;;;15.00;10.57;;;;;;;17.87;100.00;94218.28;5011301;28;20587;-80
2022/06/11 05:18:57;;;;;;;14.27;10.27;;;;;;;17.89;100.00;94224.09;5008461;28;20199;-79
2022/06/11 05:21:34;;;;;;;13.93;11.13;;;;;;;17.85;100.00;94229.09;5007378;28;20226;-78
2022/06/11 05:24:04;;;;;;;13.27;9.80;;;;;;;17.81;100.00;94228.06;5010167;28;20718;-78
2022/06/11 05:26:39;;;;;;;11.07;7.87;;;;;;;17.82;100.00;94234.91;5012724;28;20207;-78
2022/06/11 05:29:24;;;;;;;12.03;8.73;;;;;;;17.86;100.00;94235.94;5011043;28;20218;-78
2022/06/11 05:31:56;;;;;;;13.47;9.27;;;;;;;17.93;100.00;94239.03;5006880;28;20203;-78
2022/06/11 05:34:30;;;;;;;14.43;9.73;;;;;;;18.00;100.00;94249.25;5008999;28;20215;-79
2022/06/11 05:37:03;;;;;;;11.13;8.73;;;;;;;18.00;100.00;94244.78;5007644;28;20195;-78
2022/06/11 05:39:35;;;;;;;10.50;8.07;;;;;;;18.05;100.00;94244.75;5007919;28;20234;-78
2022/06/11 05:42:11;;;;;;;10.60;8.90;;;;;;;18.09;100.00;94239.72;5009137;28;20195;-81
2022/06/11 05:44:48;;;;;;;13.45;9.80;;;;;;;18.12;100.00;94250.44;5011400;28;20658;-83
2022/06/11 05:47:24;;;;;;;13.82;9.38;;;;;;;18.03;100.00;94246.06;5008278;28;20206;-81
2022/06/11 05:50:05;;;;;;;12.50;9.57;;;;;;;18.07;100.00;94247.88;5008843;28;20215;-81
2022/06/11 05:52:45;;;;;;;15.95;9.60;;;;;;;18.18;100.00;94247.81;5010210;28;20211;-80
2022/06/11 05:55:27;;;;;;;10.90;8.60;;;;;;;18.23;100.00;94256.44;5009972;28;20203;-80
2022/06/11 05:58:13;;;;;;;11.10;8.33;;;;;;;18.29;100.00;94250.09;5012148;28;20207;-82
2022/06/11 06:00:50;;;;;;;11.80;8.50;;;;;;;18.28;100.00;94245.09;5014721;28;20218;-81
2022/06/11 06:03:25;;;;;;;10.65;8.48;;;;;;;18.35;100.00;94250.84;5009297;28;20210;-82
2022/06/11 06:06:00;;;;;;;10.43;8.40;;;;;;;18.31;100.00;94249.81;5011241;28;20203;-83
2022/06/11 06:08:34;;;;;;;11.43;9.15;;;;;;;18.40;100.00;94254.22;5010100;28;20238;-81
2022/06/11 06:11:10;;;;;;;9.90;8.68;;;;;;;18.46;100.00;94254.94;4994266;28;20290;-84
2022/06/11 06:13:55;;;;;;;10.70;8.43;;;;;;;18.44;100.00;94257.84;5008114;28;20313;-83
2022/06/11 06:16:32;;;;;;;13.73;8.90;;;;;;;18.39;100.00;94257.09;5011080;28;20214;-82
2022/06/11 06:19:08;;;;;;;10.63;8.20;;;;;;;18.36;100.00;94257.66;5001896;28;20284;-81
2022/06/11 06:21:39;;;;;;;9.97;7.90;;;;;;;18.34;100.00;94259.78;5000954;28;20194;-82
2022/06/11 06:24:10;;;;;;;9.48;7.78;;;;;;;18.35;100.00;94274.50;5010825;28;20705;-81
2022/06/11 06:26:41;;;;;;;10.47;8.67;;;;;;;18.29;100.00;94267.72;5012226;28;20298;-81
2022/06/11 06:29:15;;;;;;;10.77;9.02;;;;;;;18.28;100.00;94274.03;5010174;28;20199;-81
2022/06/11 06:31:50;;;;;;;10.68;8.73;;;;;;;18.33;100.00;94276.63;5012683;28;20202;-81
2022/06/11 06:41:50;;;;;;;15.73;10.23;;;;;;;18.37;100.00;94273.19;5010739;28;20222;-80
2022/06/11 06:44:23;;;;;;;12.68;9.95;;;;;;;18.39;100.00;94281.56;5018907;28;20284;-81
2022/06/11 06:47:01;;;;;;;13.25;10.13;;;;;;;18.47;100.00;94280.22;5006198;28;20199;-80
2022/06/11 06:49:36;;;;;;;15.00;9.50;;;;;;;18.49;100.00;94283.38;5012009;28;20272;-80
2022/06/11 06:52:10;;;;;;;13.40;10.00;;;;;;;18.57;100.00;94286.19;5017323;28;20705;-78
2022/06/11 06:54:40;;;;;;;14.17;10.30;;;;;;;18.59;100.00;94280.66;5009424;28;20199;-79
2022/06/11 06:57:10;;;;;;;14.48;9.85;;;;;;;18.57;100.00;94280.16;4979220;28;20210;-83
2022/06/11 06:59:43;;;;;;;17.48;10.48;;;;;;;18.62;100.00;94286.16;5010397;28;20666;-79
2022/06/11 07:02:15;;;;;;;13.40;10.05;;;;;;;18.67;100.00;94280.06;5008967;28;20294;-81
2022/06/11 07:04:51;;;;;;;14.07;9.95;;;;;;;18.67;100.00;94272.94;5010547;28;20667;-81
2022/06/11 07:07:27;;;;;;;13.98;10.20;;;;;;;18.78;100.00;94278.91;5014049;28;20612;-84
2022/06/11 07:10:02;;;;;;;14.55;10.45;;;;;;;18.78;100.00;94272.84;5009797;28;20215;-80
2022/06/11 07:12:38;;;;;;;14.85;11.20;;;;;;;18.91;100.00;94280.88;5014834;28;20202;-83
2022/06/11 07:15:10;;;;;;;14.77;10.55;;;;;;;18.99;100.00;94285.53;5009145;28;20281;-80
2022/06/11 07:17:57;;;;;;;15.13;9.57;;;;;;;19.08;100.00;94289.13;5005301;28;20217;-81
2022/06/11 07:20:34;;;;;;;15.13;10.00;;;;;;;19.20;100.00;94294.81;5004303;28;20230;-80
2022/06/11 07:23:16;;;;;;;19.10;10.60;;;;;;;19.30;100.00;94291.28;4986710;28;20326;-79
2022/06/11 07:25:53;;;;;;;15.18;10.90;;;;;;;19.39;100.00;94299.41;4996591;28;20816;-80
2022/06/11 07:28:31;;;;;;;13.93;10.30;;;;;;;19.51;100.00;94299.78;5013890;28;20206;-79
2022/06/11 07:31:04;;;;;;;12.73;9.38;;;;;;;19.46;100.00;94303.25;5007741;28;20748;-80
2022/06/11 07:33:41;;;;;;;12.02;9.05;;;;;;;19.52;100.00;94310.03;5006547;28;21007;-80
2022/06/11 07:36:15;;;;;;;11.02;9.10;;;;;;;19.57;100.00;94312.59;5012553;28;20289;-80
2022/06/11 07:38:48;;;;;;;9.90;8.23;;;;;;;19.64;100.00;94317.53;5016339;28;20207;-80
2022/06/11 07:41:26;;;;;;;10.27;6.90;;;;;;;19.72;100.00;94315.06;5007245;28;20865;-79
2022/06/11 07:44:01;;;;;;;10.68;6.45;;;;;;;19.75;100.00;94321.63;5008527;28;20199;-80
2022/06/11 07:46:31;;;;;;;8.05;6.63;;;;;;;19.80;100.00;94324.97;5011664;28;20217;-78
2022/06/11 07:49:19;;;;;;;9.23;6.30;;;;;;;19.82;100.00;94316.81;4997032;28;20334;-80
2022/06/11 07:51:54;;;;;;;8.80;6.78;;;;;;;19.85;100.00;94308.31;4977871;28;20326;-82
2022/06/11 07:54:28;;;;;;;9.75;7.20;;;;;;;19.88;100.00;94318.31;4992883;28;20258;-84
2022/06/11 07:56:59;;;;;;;9.82;6.95;;;;;;;19.95;100.00;94313.44;5010871;28;20385;-77
2022/06/11 07:59:35;;;;;;;8.75;7.78;;;;;;;20.03;100.00;94318.09;5014483;28;20301;-77
2022/06/11 08:02:10;;;;;;;8.60;7.15;;;;;;;20.21;100.00;94319.97;5010895;28;20230;-76
2022/06/11 08:04:49;;;;;;;10.07;6.65;;;;;;;20.21;100.00;94322.59;5001438;28;20215;-73
2022/06/11 08:07:23;;;;;;;8.00;6.22;;;;;;;20.33;100.00;94320.34;5008683;28;20268;-85
2022/06/11 08:09:57;;;;;;;6.90;6.03;;;;;;;20.50;100.00;94316.41;5012021;28;20219;-80
2022/06/11 08:12:28;;;;;;;7.47;6.22;;;;;;;20.61;100.00;94323.09;5013363;28;20690;-79
2022/06/11 08:15:06;;;;;;;10.80;6.90;;;;;;;20.69;100.00;94330.38;5013784;28;20250;-79
2022/06/11 08:20:18;;;;;;;11.48;7.18;;;;;;;20.83;100.00;94337.28;2692766;23;20889;-79
2022/06/11 08:22:52;;;;;;;11.90;7.45;;;;;;;20.71;100.00;94315.81;5016811;28;20178;-81
2022/06/11 08:25:30;;;;;;;13.43;7.60;;;;;;;20.91;100.00;94333.97;5029410;28;20689;-76
2022/06/11 08:28:06;;;;;;;9.05;7.47;;;;;;;20.83;100.00;94339.13;5027530;28;20676;-79
2022/06/11 08:30:40;;;;;;;8.23;7.13;;;;;;;20.96;100.00;94333.09;5034580;28;20672;-79
2022/06/11 08:33:12;;;;;;;10.90;6.10;;;;;;;21.11;100.00;94334.72;5033822;28;21261;-77
2022/06/11 08:35:47;;;;;;;8.60;6.28;;;;;;;21.19;100.00;94321.59;5032741;28;20199;-76
2022/06/11 08:38:19;;;;;;;8.52;5.97;;;;;;;21.28;100.00;94321.72;5033993;28;20198;-83
2022/06/11 08:40:56;;;;;;;14.65;7.10;;;;;;;21.43;100.00;94338.09;5032099;28;20213;-83
2022/06/11 08:43:31;;;;;;;9.60;6.35;;;;;;;21.46;100.00;94336.72;5034382;28;20202;-82
2022/06/11 08:46:14;;;;;;;13.27;6.78;;;;;;;21.33;100.00;94326.91;5027187;28;20292;-83
2022/06/11 08:49:03;;;;;;;10.18;6.20;;;;;;;21.30;100.00;94327.50;5036007;28;20253;-82
2022/06/11 08:51:45;;;;;;;10.13;7.00;;;;;;;21.32;100.00;94310.28;5030110;28;20213;-80
2022/06/11 08:54:19;;;;;;;10.65;7.28;;;;;;;21.41;100.00;94329.66;5028540;28;20202;-80
2022/06/11 08:56:59;;;;;;;7.55;6.40;;;;;;;21.38;100.00;94324.19;5027609;28;20572;-80
2022/06/11 08:59:55;;;;;;;9.13;7.05;;;;;;;21.32;100.00;94328.78;5029390;28;20194;-81
2022/06/11 09:02:56;;;;;;;10.23;6.32;;;;;;;21.45;100.00;94314.78;5030304;28;21574;-80
2022/06/11 09:05:51;;;;;;;8.98;6.60;;;;;;;21.55;100.00;94321.75;5028753;28;20301;-79
2022/06/11 09:08:42;;;;;;;8.20;6.00;;;;;;;21.60;100.00;94323.50;5030925;28;20455;-80
2022/06/11 09:11:27;;;;;;;6.88;6.03;;;;;;;21.53;100.00;94307.25;5032194;28;20293;-79
2022/06/11 09:14:20;;;;;;;8.48;5.88;;;;;;;21.68;100.00;94307.72;5033054;28;20249;-79
2022/06/11 09:17:31;;;;;;;7.20;6.32;;;;;;;21.70;100.00;94310.09;5030329;28;20317;-78
2022/06/11 09:20:24;;;;;;;7.78;5.95;;;;;;;21.81;100.00;94317.53;5031180;28;20202;-79
2022/06/11 09:23:30;;;;;;;5.32;4.82;;;;;;;21.91;100.00;94314.69;5031606;28;20202;-80
2022/06/11 09:26:27;;;;;;;7.10;4.60;;;;;;;22.04;100.00;94316.53;4988768;28;20652;-81
2022/06/11 09:29:15;;;;;;;6.18;5.30;;;;;;;22.18;100.00;94313.06;5028327;28;20234;-81
2022/06/11 09:31:55;;;;;;;5.97;5.38;;;;;;;22.09;100.00;94323.56;5028686;28;20194;-79
2022/06/11 09:34:30;;;;;;;6.75;4.78;;;;;;;;;;5031525;28;20209;-80
2022/06/11 09:37:09;;;;;;;6.90;4.53;;;;;;;22.12;100.00;94322.97;5030949;28;20276;-80
2022/06/11 09:39:45;;;;;;;6.85;4.97;;;;;;;22.15;100.00;94316.31;5033803;28;20211;-79
2022/06/11 09:42:48;;;;;;;6.32;5.32;;;;;;;22.00;100.00;94325.34;5033518;28;20693;-79
2022/06/11 09:45:30;;;;;;;8.13;4.78;;;;;;;22.30;100.00;94330.00;5030244;28;21167;-79
2022/06/11 09:48:17;;;;;;;7.03;4.50;;;;;;;22.32;100.00;94340.28;5029969;28;20208;-79
2022/06/11 09:50:55;;;;;;;6.10;4.15;;;;;;;22.40;100.00;94340.34;5031625;28;20214;-80
2022/06/11 09:53:44;;;;;;;6.88;4.10;;;;;;;22.51;99.80;94338.28;5029929;28;20187;-79
2022/06/11 09:56:26;;;;;;;6.07;4.18;;;;;;;22.70;100.00;94335.47;5030941;28;20755;-79
2022/06/11 09:59:16;;;;;;;7.82;4.50;;;;;;;22.77;100.00;94322.59;5037720;28;20199;-80
2022/06/11 10:01:58;;;;;;;4.40;4.00;;;;;;;22.80;97.54;94322.00;5038616;28;20712;-85
2022/06/11 10:04:36;;;;;;;6.20;4.50;;;;;;;22.87;99.79;94328.44;5031485;28;20557;-76
2022/06/11 10:07:14;;;;;;;6.13;4.05;;;;;;;22.95;100.00;94330.34;5033665;28;20266;-76
2022/06/11 10:09:54;;;;;;;9.05;4.32;;;;;;;23.13;98.87;94316.13;5030794;28;20641;-76
2022/06/11 10:12:30;;;;;;;6.80;4.32;;;;;;;23.35;97.02;94320.56;5031779;28;20259;-76
2022/06/11 10:15:17;;;;;;;5.85;4.30;;;;;;;23.29;98.70;94321.78;5030501;28;20214;-77
2022/06/11 10:18:04;;;;;;;5.53;4.10;;;;;;;23.21;98.77;94322.53;5035431;28;20205;-76
2022/06/11 10:20:41;;;;;;;5.35;4.35;;;;;;;23.06;99.49;94321.06;5029524;28;20317;-76
2022/06/11 10:23:25;;;;;;;8.02;4.43;;;;;;;22.83;100.00;94329.34;5027663;28;20206;-76
2022/06/11 10:26:06;;;;;;;5.75;4.53;;;;;;;22.53;100.00;94333.47;5028825;28;20311;-76
2022/06/11 10:28:42;;;;;;;7.70;4.35;;;;;;;21.82;100.00;94337.59;5029520;28;20284;-76
2022/06/11 10:31:20;;;;;;;9.02;4.57;;;;;;;21.26;100.00;94342.38;5025912;28;20221;-77
2022/06/11 10:33:58;;;;;;;8.50;4.93;;;;;;;20.96;100.00;94346.28;5028544;28;20208;-77
2022/06/11 10:36:34;;;;;;;8.65;5.25;;;;;;;20.77;100.00;94351.63;5032554;28;20255;-77
2022/06/11 10:39:13;;;;;;;10.10;5.43;;;;;;;20.75;100.00;94347.72;5033140;28;20695;-77
2022/06/11 10:42:00;;;;;;;8.30;5.43;;;;;;;20.62;100.00;94353.72;5029398;28;20314;-77
2022/06/11 10:44:47;;;;;;;9.70;5.18;;;;;;;20.30;100.00;94351.81;5028973;28;20268;-77
2022/06/11 10:47:31;;;;;;;8.75;4.60;;;;;;;20.25;100.00;94363.22;5024596;28;20681;-76
2022/06/11 10:50:18;;;;;;;9.98;5.38;;;;;;;20.16;100.00;94356.97;5031264;28;20241;-83
2022/06/11 10:52:59;;;;;;;8.23;5.50;;;;;;;20.16;100.00;94362.25;5031321;28;20209;-77
2022/06/11 10:55:42;;;;;;;10.60;5.35;;;;;;;20.02;100.00;94355.31;5034089;28;20198;-77
2022/06/11 10:58:28;;;;;;;8.32;5.00;;;;;;;20.04;100.00;94364.53;5020767;28;20218;-76
2022/06/11 11:01:09;;;;;;;6.80;4.50;;;;;;;20.08;100.00;94370.03;5024975;28;20597;-77
2022/06/11 11:03:51;;;;;;;5.10;4.57;;;;;;;20.17;100.00;94368.31;5023355;28;20225;-77
2022/06/11 11:06:32;;;;;;;9.13;5.40;;;;;;;20.30;100.00;94367.63;5022951;28;20280;-78
2022/06/11 11:09:10;;;;;;;12.18;5.40;;;;;;;20.44;100.00;94362.44;5017479;28;20284;-79
2022/06/11 11:11:51;;;;;;;6.63;4.95;;;;;;;20.56;100.00;94366.22;5028857;28;20205;-79
2022/06/11 11:14:39;;;;;;;7.38;4.82;;;;;;;20.57;100.00;94365.16;5026070;28;20211;-84
2022/06/11 11:17:16;;;;;;;5.95;4.93;;;;;;;20.65;100.00;94361.06;5024581;28;20210;-80
2022/06/11 11:22:42;;;;;;;6.50;4.20;;;;;;;20.74;100.00;94367.25;5004565;28;21009;-79
2022/06/11 11:25:21;;;;;;;7.00;4.55;;;;;;;20.76;100.00;94365.13;5006572;28;20648;-80
2022/06/11 11:27:56;;;;;;;7.32;4.70;;;;;;;20.89;100.00;94367.03;5009387;28;20330;-81
2022/06/11 11:30:41;;;;;;;5.55;4.47;;;;;;;20.95;100.00;94364.00;5011078;28;20668;-80
2022/06/11 11:33:31;;;;;;;4.78;4.28;;;;;;;21.00;100.00;94355.22;5009672;28;20215;-81
2022/06/11 11:36:26;;;;;;;6.53;5.47;;;;;;;21.03;100.00;94349.34;4998837;28;20206;-82
2022/06/11 11:39:15;;;;;;;7.97;5.30;;;;;;;20.64;100.00;94346.28;5009389;28;20683;-84
2022/06/11 11:41:56;;;;;;;8.00;5.60;;;;;;;20.54;100.00;94357.00;5012897;28;20243;-81
2022/06/11 11:44:30;;;;;;;11.27;7.05;;;;;;;20.68;100.00;94357.84;4982337;28;21122;-80
2022/06/11 11:47:08;;;;;;;6.88;5.95;;;;;;;20.74;100.00;94362.78;4976367;28;20202;-77
2022/06/11 11:49:44;;;;;;;7.15;5.82;;;;;;;20.82;100.00;94340.97;5012219;28;21004;-76
2022/06/11 11:52:22;;;;;;;8.43;6.03;;;;;;;21.10;100.00;94355.06;5009710;28;20683;-77
2022/06/11 11:55:06;;;;;;;6.22;5.15;;;;;;;21.38;100.00;94351.41;5006861;28;20209;-77
2022/06/11 11:57:45;;;;;;;6.90;4.85;;;;;;;21.76;100.00;94349.34;5009609;28;20732;-78
2022/06/11 12:00:30;;;;;;;4.40;4.00;;;;;;;22.11;100.00;94347.13;5008456;28;20281;-78
2022/06/11 12:03:08;;;;;;;6.05;3.83;;;;;;;22.21;100.00;94355.63;5005440;28;20211;-78
2022/06/11 12:05:51;;;;;;;6.03;4.30;;;;;;;22.17;100.00;94352.00;5012083;28;20206;-82
2022/06/11 12:08:32;;;;;;;5.03;4.40;;;;;;;22.15;100.00;94354.16;5010217;28;20225;-77
2022/06/11 12:11:06;;;;;;;7.68;4.30;;;;;;;21.98;100.00;94352.13;5005627;28;20291;-77
2022/06/11 12:13:51;;;;;;;5.95;3.40;;;;;;;21.76;100.00;94330.06;5008050;28;20199;-81
2022/06/11 12:16:35;;;;;;;6.57;4.20;;;;;;;21.71;100.00;94348.66;5010593;28;20199;-78
2022/06/11 12:19:21;;;;;;;8.27;5.40;;;;;;;21.48;100.00;94345.13;5008031;28;20286;-77
2022/06/11 12:32:39;;;;;;;3.70;3.38;;;;;;;20.83;100.00;94350.47;5040947;28;20211;-77
2022/06/11 12:49:19;;;;;;;5.72;4.00;;;;;;;20.57;100.00;94344.03;5033542;28;20206;-83
2022/06/11 12:56:30;;;;;;;4.82;4.05;;;;;;;20.77;100.00;94358.78;5032512;28;20218;-91
2022/06/11 12:59:52;;;;;;;5.43;3.88;;;;;;;20.77;100.00;94366.69;5031821;28;20233;-84
2022/06/11 13:03:03;;;;;;;5.88;4.30;;;;;;;20.76;100.00;94367.75;5033605;28;20254;-78
2022/06/11 13:06:27;;;;;;;4.82;4.13;;;;;;;20.81;100.00;94376.38;5031110;28;20689;-78
2022/06/11 13:13:09;;;;;;;6.70;4.38;;;;;;;20.60;100.00;94371.72;5035138;28;20659;-81
2022/06/11 13:16:29;;;;;;;6.65;4.75;;;;;;;20.63;100.00;94379.06;5041122;28;20300;-86
2022/06/11 13:29:32;;;;;;;7.78;4.15;;;;;;;20.74;100.00;94386.56;5017139;28;20417;-81
2022/06/11 13:32:10;;;;;;;6.45;4.47;;;;;;;20.84;100.00;94396.94;5022479;28;20202;-81
2022/06/11 13:34:55;;;;;;;7.95;4.65;;;;;;;21.01;100.00;94391.13;5028150;28;20198;-83
2022/06/11 13:37:48;;;;;;;6.88;4.95;;;;;;;21.06;100.00;94393.72;5028365;28;20528;-77
2022/06/11 13:40:37;;;;;;;8.75;4.97;;;;;;;20.89;100.00;94388.19;5023938;28;20206;-80